Strona główna
METAR-TAF:

METAR-TAF

Lotnisko :

Port lotniczy Pjongjang-Sunan

Pjongjang, Korea Północna

Szerokość geograficzna: 39-02N, Długość geograficzna: 125-47E, wysokość: 36 m

METAR: brakujący

czas: 06:31 (22:01 UTC)

Prognoza

Raport powstał 17 godziny i 31 minut temu, godzina 04:30 UTC
Prognoza ważna od 20 godzina 06 UTC do 21 godzina 06 UTC
Wiatr 8 kt od północ
Widzialność: 7000 m
Przerywane chmury na wysokości 2300 ft
Stopniowe zmiany
od 20 godzina 08 UTC do 20 godzina 10 UTC
Widzialność 10 km lub więcej
Brak chmur poniżej 1500 m i brak chmur cumulonimbus

TAF: ZKPY 200430Z 2006/2106 35004MPS 7000 BKN023 TX05/2006Z TNM06/2022Z BECMG 2008/2010 CAVOK

Obserwacja i prognoza pogody dla ponad 4000 lotnisk (raport METAR i TAF).

Dostępne stacje oznaczono żółtymi i czerwonymi punktami na mapie.

Najedź kursorem aby zobaczyć nazwę stacji.

Kliknij aby zobaczyć obserwacje i prognozy pogody.

Aby zmienić mapę: kliknij na zielony przycisk z czarnym krzyżykiem, aby powiększyć; na zielony przycisk z myślnikiem, aby pomniejszyć; na zielone strzałki, aby przejść do map sąsiednich.


METAR-TAF: